sensor_id;sensor_type;location;lat;lon;timestamp;pressure;altitude;pressure_sealevel;temperature;humidity
68376;BME280;55318;52.068;5.188;2023-10-08T00:00:44;102314.0;;;19.64;97.2
68376;BME280;55318;52.068;5.188;2023-10-08T00:02:21;102316.0;;;19.72;96.84
68376;BME280;55318;52.068;5.188;2023-10-08T00:03:57;102310.0;;;19.66;97.13
68376;BME280;55318;52.068;5.188;2023-10-08T00:07:11;102319.0;;;19.56;97.91
68376;BME280;55318;52.068;5.188;2023-10-08T00:08:48;102327.0;;;19.64;97.71
68376;BME280;55318;52.068;5.188;2023-10-08T00:10:25;102346.0;;;19.59;98.11
68376;BME280;55318;52.068;5.188;2023-10-08T00:12:01;102347.0;;;19.68;97.78
68376;BME280;55318;52.068;5.188;2023-10-08T00:15:14;102344.0;;;19.61;98.18
68376;BME280;55318;52.068;5.188;2023-10-08T00:16:50;102337.0;;;19.53;98.58
68376;BME280;55318;52.068;5.188;2023-10-08T00:18:26;102347.0;;;19.52;98.59
68376;BME280;55318;52.068;5.188;2023-10-08T00:21:40;102342.0;;;19.5;98.9
68376;BME280;55318;52.068;5.188;2023-10-08T00:23:16;102338.0;;;19.59;98.55
68376;BME280;55318;52.068;5.188;2023-10-08T00:24:52;102347.0;;;19.54;98.98
68376;BME280;55318;52.068;5.188;2023-10-08T00:28:05;102346.0;;;19.48;99.28
68376;BME280;55318;52.068;5.188;2023-10-08T00:29:43;102342.0;;;19.45;99.76
68376;BME280;55318;52.068;5.188;2023-10-08T00:31:19;102336.0;;;19.41;99.94
68376;BME280;55318;52.068;5.188;2023-10-08T00:32:55;102336.0;;;19.36;100.0
68376;BME280;55318;52.068;5.188;2023-10-08T00:36:08;102334.0;;;19.3;100.0
68376;BME280;55318;52.068;5.188;2023-10-08T00:37:44;102334.0;;;19.23;100.0
68376;BME280;55318;52.068;5.188;2023-10-08T00:39:20;102331.0;;;19.16;100.0
68376;BME280;55318;52.068;5.188;2023-10-08T00:42:32;102328.0;;;19.09;100.0
68376;BME280;55318;52.068;5.188;2023-10-08T00:44:09;102323.0;;;19.03;100.0
68376;BME280;55318;52.068;5.188;2023-10-08T00:45:45;102323.0;;;19.0;100.0
68376;BME280;55318;52.068;5.188;2023-10-08T00:48:59;102319.0;;;19.0;100.0
68376;BME280;55318;52.068;5.188;2023-10-08T00:50:36;102316.0;;;18.96;100.0
68376;BME280;55318;52.068;5.188;2023-10-08T00:52:14;102316.0;;;18.95;100.0
68376;BME280;55318;52.068;5.188;2023-10-08T00:53:53;102311.0;;;18.91;100.0
68376;BME280;55318;52.068;5.188;2023-10-08T00:57:07;102307.0;;;18.84;100.0
68376;BME280;55318;52.068;5.188;2023-10-08T00:58:44;102296.0;;;18.81;100.0
68376;BME280;55318;52.068;5.188;2023-10-08T01:00:20;102285.0;;;18.81;100.0
68376;BME280;55318;52.068;5.188;2023-10-08T01:03:32;102286.0;;;18.78;100.0
68376;BME280;55318;52.068;5.188;2023-10-08T01:05:08;102290.0;;;18.77;100.0
68376;BME280;55318;52.068;5.188;2023-10-08T01:06:45;102294.0;;;18.75;100.0
68376;BME280;55318;52.068;5.188;2023-10-08T01:08:22;102305.0;;;18.75;100.0
68376;BME280;55318;52.068;5.188;2023-10-08T01:11:36;102309.0;;;18.73;100.0
68376;BME280;55318;52.068;5.188;2023-10-08T01:13:12;102309.0;;;18.7;100.0
68376;BME280;55318;52.068;5.188;2023-10-08T01:14:48;102305.0;;;18.64;100.0
68376;BME280;55318;52.068;5.188;2023-10-08T01:18:02;102302.0;;;18.66;100.0
68376;BME280;55318;52.068;5.188;2023-10-08T01:19:38;102296.0;;;18.62;100.0
68376;BME280;55318;52.068;5.188;2023-10-08T01:21:15;102293.0;;;18.68;100.0
68376;BME280;55318;52.068;5.188;2023-10-08T01:24:29;102301.0;;;18.66;100.0
68376;BME280;55318;52.068;5.188;2023-10-08T01:26:05;102290.0;;;18.66;100.0
68376;BME280;55318;52.068;5.188;2023-10-08T01:27:41;102300.0;;;18.62;100.0
68376;BME280;55318;52.068;5.188;2023-10-08T01:29:17;102301.0;;;18.61;100.0
68376;BME280;55318;52.068;5.188;2023-10-08T01:32:30;102297.0;;;18.61;100.0
68376;BME280;55318;52.068;5.188;2023-10-08T01:34:07;102305.0;;;18.68;100.0
68376;BME280;55318;52.068;5.188;2023-10-08T01:35:44;102314.0;;;18.68;100.0
68376;BME280;55318;52.068;5.188;2023-10-08T01:38:56;102311.0;;;18.64;100.0
68376;BME280;55318;52.068;5.188;2023-10-08T01:40:33;102315.0;;;18.7;100.0
68376;BME280;55318;52.068;5.188;2023-10-08T01:42:09;102313.0;;;18.71;100.0
68376;BME280;55318;52.068;5.188;2023-10-08T01:45:22;102316.0;;;18.68;100.0
68376;BME280;55318;52.068;5.188;2023-10-08T01:46:57;102317.0;;;18.7;100.0
68376;BME280;55318;52.068;5.188;2023-10-08T01:48:33;102322.0;;;18.71;100.0
68376;BME280;55318;52.068;5.188;2023-10-08T01:51:46;102324.0;;;18.66;100.0
68376;BME280;55318;52.068;5.188;2023-10-08T01:53:22;102324.0;;;18.66;100.0
68376;BME280;55318;52.068;5.188;2023-10-08T01:54:58;102333.0;;;18.68;100.0
68376;BME280;55318;52.068;5.188;2023-10-08T01:56:34;102334.0;;;18.66;100.0
68376;BME280;55318;52.068;5.188;2023-10-08T01:59:49;102340.0;;;18.64;100.0
68376;BME280;55318;52.068;5.188;2023-10-08T02:01:25;102342.0;;;18.64;100.0
68376;BME280;55318;52.068;5.188;2023-10-08T02:03:03;102352.0;;;18.68;100.0
68376;BME280;55318;52.068;5.188;2023-10-08T02:06:16;102361.0;;;18.68;100.0
68376;BME280;55318;52.068;5.188;2023-10-08T02:07:52;102355.0;;;18.66;100.0
68376;BME280;55318;52.068;5.188;2023-10-08T02:09:28;102362.0;;;18.68;100.0
68376;BME280;55318;52.068;5.188;2023-10-08T02:12:40;102367.0;;;18.71;100.0
68376;BME280;55318;52.068;5.188;2023-10-08T02:14:17;102347.0;;;18.77;100.0
68376;BME280;55318;52.068;5.188;2023-10-08T02:15:54;102370.0;;;18.77;100.0
68376;BME280;55318;52.068;5.188;2023-10-08T02:17:32;102368.0;;;18.77;100.0
68376;BME280;55318;52.068;5.188;2023-10-08T02:20:46;102358.0;;;18.79;100.0
68376;BME280;55318;52.068;5.188;2023-10-08T02:22:23;102374.0;;;18.8;100.0
68376;BME280;55318;52.068;5.188;2023-10-08T02:23:59;102363.0;;;18.78;100.0
68376;BME280;55318;52.068;5.188;2023-10-08T02:27:12;102346.0;;;18.79;100.0
68376;BME280;55318;52.068;5.188;2023-10-08T02:28:49;102352.0;;;18.84;100.0
68376;BME280;55318;52.068;5.188;2023-10-08T02:30:26;102340.0;;;18.82;100.0
68376;BME280;55318;52.068;5.188;2023-10-08T02:32:03;102337.0;;;18.75;100.0
68376;BME280;55318;52.068;5.188;2023-10-08T02:35:16;102355.0;;;18.75;100.0
68376;BME280;55318;52.068;5.188;2023-10-08T02:36:52;102345.0;;;18.81;100.0
68376;BME280;55318;52.068;5.188;2023-10-08T02:38:28;102350.0;;;18.77;100.0
68376;BME280;55318;52.068;5.188;2023-10-08T02:41:44;102363.0;;;18.77;100.0
68376;BME280;55318;52.068;5.188;2023-10-08T02:43:20;102356.0;;;18.73;100.0
68376;BME280;55318;52.068;5.188;2023-10-08T02:44:56;102337.0;;;18.66;100.0
68376;BME280;55318;52.068;5.188;2023-10-08T02:48:08;102333.0;;;18.64;100.0
68376;BME280;55318;52.068;5.188;2023-10-08T02:49:44;102348.0;;;18.63;100.0
68376;BME280;55318;52.068;5.188;2023-10-08T02:51:21;102369.0;;;18.7;100.0
68376;BME280;55318;52.068;5.188;2023-10-08T02:52:57;102363.0;;;18.62;100.0
68376;BME280;55318;52.068;5.188;2023-10-08T02:56:09;102372.0;;;18.54;100.0
68376;BME280;55318;52.068;5.188;2023-10-08T02:57:46;102371.0;;;18.52;100.0
68376;BME280;55318;52.068;5.188;2023-10-08T02:59:22;102355.0;;;18.54;100.0
68376;BME280;55318;52.068;5.188;2023-10-08T03:02:35;102337.0;;;18.53;100.0
68376;BME280;55318;52.068;5.188;2023-10-08T03:04:11;102349.0;;;18.53;100.0
68376;BME280;55318;52.068;5.188;2023-10-08T03:05:49;102356.0;;;18.5;100.0
68376;BME280;55318;52.068;5.188;2023-10-08T03:09:02;102370.0;;;18.46;100.0
68376;BME280;55318;52.068;5.188;2023-10-08T03:10:39;102367.0;;;18.47;100.0
68376;BME280;55318;52.068;5.188;2023-10-08T03:12:16;102374.0;;;18.46;100.0
68376;BME280;55318;52.068;5.188;2023-10-08T03:13:53;102369.0;;;18.43;100.0
68376;BME280;55318;52.068;5.188;2023-10-08T03:17:05;102380.0;;;18.41;100.0
68376;BME280;55318;52.068;5.188;2023-10-08T03:18:42;102377.0;;;18.39;100.0
68376;BME280;55318;52.068;5.188;2023-10-08T03:20:19;102366.0;;;18.41;100.0
68376;BME280;55318;52.068;5.188;2023-10-08T03:23:31;102358.0;;;18.34;100.0
68376;BME280;55318;52.068;5.188;2023-10-08T03:25:08;102356.0;;;18.34;100.0
68376;BME280;55318;52.068;5.188;2023-10-08T03:26:44;102352.0;;;18.28;100.0
68376;BME280;55318;52.068;5.188;2023-10-08T03:29:56;102355.0;;;18.28;100.0
68376;BME280;55318;52.068;5.188;2023-10-08T03:31:32;102340.0;;;18.23;100.0
68376;BME280;55318;52.068;5.188;2023-10-08T03:33:09;102348.0;;;18.22;100.0
68376;BME280;55318;52.068;5.188;2023-10-08T03:36:23;102350.0;;;18.22;100.0
68376;BME280;55318;52.068;5.188;2023-10-08T03:37:59;102351.0;;;18.2;100.0
68376;BME280;55318;52.068;5.188;2023-10-08T03:39:35;102360.0;;;18.21;100.0
68376;BME280;55318;52.068;5.188;2023-10-08T03:41:11;102380.0;;;18.25;100.0
68376;BME280;55318;52.068;5.188;2023-10-08T03:44:23;102397.0;;;18.25;100.0
68376;BME280;55318;52.068;5.188;2023-10-08T03:45:59;102401.0;;;18.27;100.0
68376;BME280;55318;52.068;5.188;2023-10-08T03:47:36;102406.0;;;18.22;100.0
68376;BME280;55318;52.068;5.188;2023-10-08T03:50:49;102408.0;;;18.21;100.0
68376;BME280;55318;52.068;5.188;2023-10-08T03:52:25;102411.99999999999;;;18.18;100.0
68376;BME280;55318;52.068;5.188;2023-10-08T03:54:00;102407.0;;;18.22;100.0
68376;BME280;55318;52.068;5.188;2023-10-08T03:57:14;102413.00000000001;;;18.21;100.0
68376;BME280;55318;52.068;5.188;2023-10-08T03:58:51;102409.99999999999;;;18.2;100.0
68376;BME280;55318;52.068;5.188;2023-10-08T04:00:27;102411.99999999999;;;18.21;100.0
68376;BME280;55318;52.068;5.188;2023-10-08T04:02:03;102417.0;;;18.22;100.0
68376;BME280;55318;52.068;5.188;2023-10-08T04:05:15;102409.99999999999;;;18.23;100.0
68376;BME280;55318;52.068;5.188;2023-10-08T04:06:51;102421.0;;;18.25;100.0
68376;BME280;55318;52.068;5.188;2023-10-08T04:08:28;102429.0;;;18.23;100.0
68376;BME280;55318;52.068;5.188;2023-10-08T04:11:42;102447.0;;;18.27;100.0
68376;BME280;55318;52.068;5.188;2023-10-08T04:13:18;102451.0;;;18.32;100.0
68376;BME280;55318;52.068;5.188;2023-10-08T04:14:54;102451.0;;;18.36;100.0
68376;BME280;55318;52.068;5.188;2023-10-08T04:18:10;102445.0;;;18.43;100.0
68376;BME280;55318;52.068;5.188;2023-10-08T04:19:47;102452.0;;;18.45;100.0
68376;BME280;55318;52.068;5.188;2023-10-08T04:21:24;102448.0;;;18.45;100.0
68376;BME280;55318;52.068;5.188;2023-10-08T04:23:01;102450.0;;;18.5;100.0
68376;BME280;55318;52.068;5.188;2023-10-08T04:26:15;102455.0;;;18.59;100.0
68376;BME280;55318;52.068;5.188;2023-10-08T04:27:51;102449.0;;;18.53;100.0
68376;BME280;55318;52.068;5.188;2023-10-08T04:29:27;102439.00000000001;;;18.61;100.0
68376;BME280;55318;52.068;5.188;2023-10-08T04:32:40;102445.0;;;18.71;100.0
68376;BME280;55318;52.068;5.188;2023-10-08T04:34:15;102445.0;;;18.68;100.0
68376;BME280;55318;52.068;5.188;2023-10-08T04:35:52;102445.0;;;18.71;100.0
68376;BME280;55318;52.068;5.188;2023-10-08T04:39:04;102447.0;;;18.72;100.0
68376;BME280;55318;52.068;5.188;2023-10-08T04:40:41;102447.0;;;18.81;100.0
68376;BME280;55318;52.068;5.188;2023-10-08T04:42:17;102433.0;;;18.73;100.0
68376;BME280;55318;52.068;5.188;2023-10-08T04:43:54;102430.0;;;18.81;100.0
68376;BME280;55318;52.068;5.188;2023-10-08T04:47:06;102424.0;;;18.8;100.0
68376;BME280;55318;52.068;5.188;2023-10-08T04:48:43;102424.0;;;18.82;100.0
68376;BME280;55318;52.068;5.188;2023-10-08T04:50:19;102420.0;;;18.82;100.0
68376;BME280;55318;52.068;5.188;2023-10-08T04:53:34;102425.0;;;18.88;100.0
68376;BME280;55318;52.068;5.188;2023-10-08T04:55:10;102434.99999999999;;;18.79;100.0
68376;BME280;55318;52.068;5.188;2023-10-08T04:56:46;102443.0;;;18.61;100.0
68376;BME280;55318;52.068;5.188;2023-10-08T04:59:59;102458.99999999999;;;18.47;100.0
68376;BME280;55318;52.068;5.188;2023-10-08T05:01:35;102467.0;;;18.38;100.0
68376;BME280;55318;52.068;5.188;2023-10-08T05:03:11;102475.0;;;18.29;100.0
68376;BME280;55318;52.068;5.188;2023-10-08T05:04:48;102473.0;;;18.25;100.0
68376;BME280;55318;52.068;5.188;2023-10-08T05:08:03;102478.0;;;18.14;100.0
68376;BME280;55318;52.068;5.188;2023-10-08T05:09:39;102475.0;;;18.04;100.0
68376;BME280;55318;52.068;5.188;2023-10-08T05:11:16;102467.0;;;18.02;100.0
68376;BME280;55318;52.068;5.188;2023-10-08T05:14:29;102463.00000000001;;;17.88;100.0
68376;BME280;55318;52.068;5.188;2023-10-08T05:16:05;102453.0;;;17.93;100.0
68376;BME280;55318;52.068;5.188;2023-10-08T05:17:43;102456.0;;;17.97;100.0
68376;BME280;55318;52.068;5.188;2023-10-08T05:20:56;102467.0;;;17.95;100.0
68376;BME280;55318;52.068;5.188;2023-10-08T05:22:33;102463.00000000001;;;17.87;100.0
68376;BME280;55318;52.068;5.188;2023-10-08T05:24:09;102471.0;;;17.86;100.0
68376;BME280;55318;52.068;5.188;2023-10-08T05:25:45;102471.0;;;17.84;100.0
68376;BME280;55318;52.068;5.188;2023-10-08T05:28:57;102474.0;;;17.8;100.0
68376;BME280;55318;52.068;5.188;2023-10-08T05:30:34;102479.0;;;17.87;100.0
68376;BME280;55318;52.068;5.188;2023-10-08T05:32:11;102480.0;;;17.96;100.0
68376;BME280;55318;52.068;5.188;2023-10-08T05:35:25;102493.0;;;17.89;100.0
68376;BME280;55318;52.068;5.188;2023-10-08T05:37:01;102493.0;;;17.79;100.0
68376;BME280;55318;52.068;5.188;2023-10-08T05:38:37;102490.00000000001;;;17.82;100.0
68376;BME280;55318;52.068;5.188;2023-10-08T05:41:50;102497.0;;;17.71;100.0
68376;BME280;55318;52.068;5.188;2023-10-08T05:43:27;102497.0;;;17.7;100.0
68376;BME280;55318;52.068;5.188;2023-10-08T05:45:04;102497.0;;;17.66;100.0
68376;BME280;55318;52.068;5.188;2023-10-08T05:46:41;102493.0;;;17.59;100.0
68376;BME280;55318;52.068;5.188;2023-10-08T05:49:53;102490.00000000001;;;17.52;100.0
68376;BME280;55318;52.068;5.188;2023-10-08T05:51:29;102491.00000000001;;;17.5;100.0
68376;BME280;55318;52.068;5.188;2023-10-08T05:53:06;102500.0;;;17.37;100.0
68376;BME280;55318;52.068;5.188;2023-10-08T05:56:18;102508.0;;;17.39;100.0
68376;BME280;55318;52.068;5.188;2023-10-08T05:57:59;102518.0;;;17.34;100.0
68376;BME280;55318;52.068;5.188;2023-10-08T05:59:44;102517.0;;;17.36;100.0
68376;BME280;55318;52.068;5.188;2023-10-08T06:01:21;102509.99999999999;;;17.34;100.0
68376;BME280;55318;52.068;5.188;2023-10-08T06:04:33;102504.0;;;17.36;100.0
68376;BME280;55318;52.068;5.188;2023-10-08T06:06:09;102505.0;;;17.36;99.81
68376;BME280;55318;52.068;5.188;2023-10-08T06:07:47;102491.00000000001;;;17.3;100.0
68376;BME280;55318;52.068;5.188;2023-10-08T06:11:01;102483.99999999999;;;17.25;100.0
68376;BME280;55318;52.068;5.188;2023-10-08T06:12:38;102500.0;;;17.23;100.0
68376;BME280;55318;52.068;5.188;2023-10-08T06:14:14;102507.0;;;17.23;99.82
68376;BME280;55318;52.068;5.188;2023-10-08T06:17:27;102524.0;;;17.21;100.0
68376;BME280;55318;52.068;5.188;2023-10-08T06:19:03;102539.00000000001;;;17.28;99.6
68376;BME280;55318;52.068;5.188;2023-10-08T06:20:39;102548.0;;;17.16;99.93
68376;BME280;55318;52.068;5.188;2023-10-08T06:22:15;102546.0;;;17.18;99.91
68376;BME280;55318;52.068;5.188;2023-10-08T06:25:27;102554.0;;;17.14;98.82
68376;BME280;55318;52.068;5.188;2023-10-08T06:27:04;102561.99999999999;;;17.09;99.22
68376;BME280;55318;52.068;5.188;2023-10-08T06:28:42;102557.0;;;17.09;100.0
68376;BME280;55318;52.068;5.188;2023-10-08T06:31:57;102557.0;;;17.02;98.87
68376;BME280;55318;52.068;5.188;2023-10-08T06:33:34;102566.00000000001;;;16.93;99.12
68376;BME280;55318;52.068;5.188;2023-10-08T06:35:11;102569.0;;;16.9;99.7
68376;BME280;55318;52.068;5.188;2023-10-08T06:36:48;102570.0;;;16.84;99.61
68376;BME280;55318;52.068;5.188;2023-10-08T06:40:01;102574.0;;;16.97;97.91
68376;BME280;55318;52.068;5.188;2023-10-08T06:41:37;102572.0;;;17.02;97.04
68376;BME280;55318;52.068;5.188;2023-10-08T06:43:13;102570.0;;;17.04;95.86
68376;BME280;55318;52.068;5.188;2023-10-08T06:46:25;102570.0;;;16.87;94.51
68376;BME280;55318;52.068;5.188;2023-10-08T06:48:01;102573.0;;;16.82;93.73
68376;BME280;55318;52.068;5.188;2023-10-08T06:49:38;102573.0;;;16.78;93.04
68376;BME280;55318;52.068;5.188;2023-10-08T06:52:51;102577.0;;;16.75;93.66
68376;BME280;55318;52.068;5.188;2023-10-08T06:54:28;102581.0;;;16.71;93.7
68376;BME280;55318;52.068;5.188;2023-10-08T06:56:04;102589.00000000001;;;16.52;93.6
68376;BME280;55318;52.068;5.188;2023-10-08T06:59:17;102592.0;;;16.57;93.1
68376;BME280;55318;52.068;5.188;2023-10-08T07:00:53;102593.0;;;16.52;92.96
68376;BME280;55318;52.068;5.188;2023-10-08T07:02:29;102596.0;;;16.5;93.62
68376;BME280;55318;52.068;5.188;2023-10-08T07:04:05;102603.0;;;16.5;92.95
68376;BME280;55318;52.068;5.188;2023-10-08T07:07:20;102598.0;;;16.56;93.39
68376;BME280;55318;52.068;5.188;2023-10-08T07:08:58;102604.0;;;16.5;93.09
68376;BME280;55318;52.068;5.188;2023-10-08T07:10:34;102602.0;;;16.48;92.7
68376;BME280;55318;52.068;5.188;2023-10-08T07:13:47;102603.0;;;16.43;92.64
68376;BME280;55318;52.068;5.188;2023-10-08T07:15:24;102599.0;;;16.41;91.89
68376;BME280;55318;52.068;5.188;2023-10-08T07:17:00;102601.0;;;16.45;92.93
68376;BME280;55318;52.068;5.188;2023-10-08T07:20:14;102603.0;;;16.41;93.84
68376;BME280;55318;52.068;5.188;2023-10-08T07:21:50;102602.0;;;16.5;92.56
68376;BME280;55318;52.068;5.188;2023-10-08T07:23:28;102598.0;;;16.5;92.5
68376;BME280;55318;52.068;5.188;2023-10-08T07:25:04;102594.0;;;16.43;92.45
68376;BME280;55318;52.068;5.188;2023-10-08T07:28:18;102593.0;;;16.4;93.88
68376;BME280;55318;52.068;5.188;2023-10-08T07:29:54;102606.0;;;16.43;93.22
68376;BME280;55318;52.068;5.188;2023-10-08T07:31:30;102601.0;;;16.48;92.57
68376;BME280;55318;52.068;5.188;2023-10-08T07:34:42;102601.0;;;16.38;92.83
68376;BME280;55318;52.068;5.188;2023-10-08T07:36:18;102607.0;;;16.45;93.83
68376;BME280;55318;52.068;5.188;2023-10-08T07:37:55;102613.00000000001;;;16.5;93.13
68376;BME280;55318;52.068;5.188;2023-10-08T07:41:08;102615.00000000001;;;16.53;92.58
68376;BME280;55318;52.068;5.188;2023-10-08T07:42:45;102615.00000000001;;;16.53;92.29
68376;BME280;55318;52.068;5.188;2023-10-08T07:44:21;102619.0;;;16.53;91.61
68376;BME280;55318;52.068;5.188;2023-10-08T07:45:58;102614.00000000001;;;16.59;91.38
68376;BME280;55318;52.068;5.188;2023-10-08T07:49:10;102614.00000000001;;;16.7;91.25
68376;BME280;55318;52.068;5.188;2023-10-08T07:50:46;102617.0;;;16.5;92.15
68376;BME280;55318;52.068;5.188;2023-10-08T07:52:22;102617.0;;;16.56;92.13
68376;BME280;55318;52.068;5.188;2023-10-08T07:55:35;102626.0;;;16.68;91.56
68376;BME280;55318;52.068;5.188;2023-10-08T07:57:11;102633.0;;;16.55;91.58
68376;BME280;55318;52.068;5.188;2023-10-08T07:58:48;102642.0;;;16.62;91.39
68376;BME280;55318;52.068;5.188;2023-10-08T08:02:00;102650.0;;;16.73;90.75
68376;BME280;55318;52.068;5.188;2023-10-08T08:03:36;102656.0;;;16.64;91.41
68376;BME280;55318;52.068;5.188;2023-10-08T08:05:12;102661.99999999999;;;16.61;91.54
68376;BME280;55318;52.068;5.188;2023-10-08T08:06:50;102663.00000000001;;;16.63;91.73
68376;BME280;55318;52.068;5.188;2023-10-08T08:10:03;102664.00000000001;;;16.63;91.59
68376;BME280;55318;52.068;5.188;2023-10-08T08:11:40;102667.0;;;16.7;91.87
68376;BME280;55318;52.068;5.188;2023-10-08T08:13:16;102665.00000000001;;;16.64;91.75
68376;BME280;55318;52.068;5.188;2023-10-08T08:16:28;102669.0;;;16.75;91.14
68376;BME280;55318;52.068;5.188;2023-10-08T08:18:05;102668.0;;;16.65;91.73
68376;BME280;55318;52.068;5.188;2023-10-08T08:19:42;102666.00000000001;;;16.68;91.07
68376;BME280;55318;52.068;5.188;2023-10-08T08:22:56;102664.00000000001;;;16.75;91.06
68376;BME280;55318;52.068;5.188;2023-10-08T08:24:32;102664.00000000001;;;16.75;90.47
68376;BME280;55318;52.068;5.188;2023-10-08T08:26:08;102668.0;;;16.78;90.9
68376;BME280;55318;52.068;5.188;2023-10-08T08:27:44;102667.0;;;16.75;90.57
68376;BME280;55318;52.068;5.188;2023-10-08T08:31:01;102674.0;;;16.72;91.71
68376;BME280;55318;52.068;5.188;2023-10-08T08:32:39;102675.0;;;16.78;91.23
68376;BME280;55318;52.068;5.188;2023-10-08T08:34:15;102681.0;;;16.68;91.52
68376;BME280;55318;52.068;5.188;2023-10-08T08:37:35;102694.0;;;16.87;91.86
68376;BME280;55318;52.068;5.188;2023-10-08T08:39:12;102698.0;;;16.84;91.24
68376;BME280;55318;52.068;5.188;2023-10-08T08:40:48;102697.0;;;16.89;91.39
68376;BME280;55318;52.068;5.188;2023-10-08T08:42:24;102704.0;;;16.82;91.05
68376;BME280;55318;52.068;5.188;2023-10-08T08:45:39;102708.0;;;16.95;90.3
68376;BME280;55318;52.068;5.188;2023-10-08T08:47:16;102707.0;;;16.87;90.75
68376;BME280;55318;52.068;5.188;2023-10-08T08:48:53;102709.99999999999;;;16.93;91.2
68376;BME280;55318;52.068;5.188;2023-10-08T08:52:11;102717.0;;;16.95;91.29
68376;BME280;55318;52.068;5.188;2023-10-08T08:53:48;102708.99999999999;;;16.91;91.61
68376;BME280;55318;52.068;5.188;2023-10-08T08:55:24;102706.0;;;16.8;92.3
68376;BME280;55318;52.068;5.188;2023-10-08T08:57:03;102706.0;;;16.93;92.23
68376;BME280;55318;52.068;5.188;2023-10-08T09:00:18;102702.0;;;16.81;92.25
68376;BME280;55318;52.068;5.188;2023-10-08T09:01:55;102706.0;;;16.87;91.95
68376;BME280;55318;52.068;5.188;2023-10-08T09:03:33;102703.0;;;16.93;91.03
68376;BME280;55318;52.068;5.188;2023-10-08T09:06:47;102697.0;;;16.93;91.14
68376;BME280;55318;52.068;5.188;2023-10-08T09:08:27;102696.0;;;16.9;91.7
68376;BME280;55318;52.068;5.188;2023-10-08T09:10:05;102694.0;;;16.95;91.89
68376;BME280;55318;52.068;5.188;2023-10-08T09:11:41;102692.0;;;17.0;90.92
68376;BME280;55318;52.068;5.188;2023-10-08T09:15:00;102692.0;;;17.07;90.31
68376;BME280;55318;52.068;5.188;2023-10-08T09:16:37;102695.0;;;17.05;90.51
68376;BME280;55318;52.068;5.188;2023-10-08T09:18:14;102690.00000000001;;;17.11;88.6
68376;BME280;55318;52.068;5.188;2023-10-08T09:21:29;102686.99999999999;;;17.11;88.6
68376;BME280;55318;52.068;5.188;2023-10-08T09:23:07;102678.0;;;17.18;87.68
68376;BME280;55318;52.068;5.188;2023-10-08T09:24:43;102679.0;;;17.34;87.56
68376;BME280;55318;52.068;5.188;2023-10-08T09:26:22;102678.0;;;17.38;87.09
68376;BME280;55318;52.068;5.188;2023-10-08T09:29:36;102683.99999999999;;;17.53;86.74
68376;BME280;55318;52.068;5.188;2023-10-08T09:31:12;102681.0;;;17.47;87.45
68376;BME280;55318;52.068;5.188;2023-10-08T09:32:49;102691.00000000001;;;17.56;86.52
68376;BME280;55318;52.068;5.188;2023-10-08T09:36:03;102690.00000000001;;;17.59;85.11
68376;BME280;55318;52.068;5.188;2023-10-08T09:37:41;102691.00000000001;;;17.71;84.99
68376;BME280;55318;52.068;5.188;2023-10-08T09:39:18;102698.0;;;17.71;84.65
68376;BME280;55318;52.068;5.188;2023-10-08T09:40:57;102696.0;;;17.72;83.97
68376;BME280;55318;52.068;5.188;2023-10-08T09:44:13;102700.0;;;17.72;84.03
68376;BME280;55318;52.068;5.188;2023-10-08T09:46:03;102698.0;;;17.68;84.92
68376;BME280;55318;52.068;5.188;2023-10-08T09:47:49;102697.0;;;17.66;83.94
68376;BME280;55318;52.068;5.188;2023-10-08T09:49:31;102694.0;;;17.66;83.66
68376;BME280;55318;52.068;5.188;2023-10-08T09:53:07;102694.0;;;17.63;84.59
68376;BME280;55318;52.068;5.188;2023-10-08T09:54:44;102694.0;;;17.57;85.1
68376;BME280;55318;52.068;5.188;2023-10-08T09:56:29;102698.0;;;17.61;84.41
68376;BME280;55318;52.068;5.188;2023-10-08T09:58:06;102694.0;;;17.63;84.76
68376;BME280;55318;52.068;5.188;2023-10-08T10:01:24;102697.0;;;17.64;84.68
68376;BME280;55318;52.068;5.188;2023-10-08T10:03:02;102703.0;;;17.75;84.49
68376;BME280;55318;52.068;5.188;2023-10-08T10:04:42;102695.0;;;17.77;84.28
68376;BME280;55318;52.068;5.188;2023-10-08T10:06:19;102689.00000000001;;;17.81;83.96
68376;BME280;55318;52.068;5.188;2023-10-08T10:09:33;102683.99999999999;;;17.84;83.86
68376;BME280;55318;52.068;5.188;2023-10-08T10:11:10;102690.00000000001;;;17.8;84.01
68376;BME280;55318;52.068;5.188;2023-10-08T10:12:47;102689.00000000001;;;17.86;83.99
68376;BME280;55318;52.068;5.188;2023-10-08T10:14:24;102686.99999999999;;;17.79;84.69
68376;BME280;55318;52.068;5.188;2023-10-08T10:17:37;102692.0;;;17.86;85.98
68376;BME280;55318;52.068;5.188;2023-10-08T10:19:16;102691.00000000001;;;17.84;84.94
68376;BME280;55318;52.068;5.188;2023-10-08T10:20:57;102695.0;;;17.77;84.37
68376;BME280;55318;52.068;5.188;2023-10-08T10:24:22;102693.0;;;17.91;84.49
68376;BME280;55318;52.068;5.188;2023-10-08T10:25:58;102699.0;;;17.84;85.15
68376;BME280;55318;52.068;5.188;2023-10-08T10:27:34;102697.0;;;17.86;84.69
68376;BME280;55318;52.068;5.188;2023-10-08T10:29:20;102696.0;;;17.78;85.07
68376;BME280;55318;52.068;5.188;2023-10-08T10:32:33;102704.0;;;17.84;85.17
68376;BME280;55318;52.068;5.188;2023-10-08T10:34:09;102708.99999999999;;;17.82;85.14
68376;BME280;55318;52.068;5.188;2023-10-08T10:35:51;102705.0;;;17.75;85.35
68376;BME280;55318;52.068;5.188;2023-10-08T10:37:27;102708.0;;;17.86;84.96
68376;BME280;55318;52.068;5.188;2023-10-08T10:40:41;102708.0;;;17.86;86.22
68376;BME280;55318;52.068;5.188;2023-10-08T10:42:18;102708.99999999999;;;17.87;85.93
68376;BME280;55318;52.068;5.188;2023-10-08T10:43:54;102707.0;;;17.95;85.07
68376;BME280;55318;52.068;5.188;2023-10-08T10:47:07;102708.0;;;18.02;85.52
68376;BME280;55318;52.068;5.188;2023-10-08T10:48:43;102707.0;;;18.04;84.88
68376;BME280;55318;52.068;5.188;2023-10-08T10:50:19;102699.0;;;18.04;84.86